Time;durP1;ratioP1;P1;durP2;ratioP2;P2;SDS_P1;SDS_P2;PMS_P1;PMS_P2;Temp;Humidity;BMP_temperature;BMP_pressure;BME280_temperature;BME280_humidity;BME280_pressure;Samples;Min_cycle;Max_cycle;Signal;HPM_P1;HPM_P2
2024/04/14 00:01:33;;;;;;;3.00;1.92;;;19.30;62.90;;;;;;5453046;26;20253;-63
2024/04/14 00:03:59;;;;;;;2.75;2.50;;;19.30;63.00;;;;;;5453577;26;20761;-64
2024/04/14 00:06:26;;;;;;;2.78;2.17;;;19.30;63.00;;;;;;5454285;26;20250;-64
2024/04/14 00:08:52;;;;;;;3.60;1.98;;;19.30;63.00;;;;;;5453013;26;20215;-64
2024/04/14 00:11:17;;;;;;;2.60;2.30;;;19.30;62.90;;;;;;5454251;26;20662;-64
2024/04/14 00:13:43;;;;;;;3.05;2.28;;;19.30;63.00;;;;;;5453492;26;20215;-64
2024/04/14 00:16:08;;;;;;;2.75;2.30;;;19.30;62.90;;;;;;5462244;26;20277;-65
2024/04/14 00:18:34;;;;;;;1.98;1.77;;;19.30;62.90;;;;;;5490476;26;20218;-64
2024/04/14 00:21:00;;;;;;;3.05;2.40;;;19.30;62.90;;;;;;5489478;26;20876;-64
2024/04/14 00:23:26;;;;;;;4.68;2.22;;;19.30;62.90;;;;;;5489891;26;20218;-63
2024/04/14 00:25:51;;;;;;;2.85;1.90;;;19.30;62.90;;;;;;5489574;26;20541;-63
2024/04/14 00:28:17;;;;;;;2.03;1.90;;;19.30;62.90;;;;;;5489533;26;20215;-63
2024/04/14 00:30:42;;;;;;;3.92;2.38;;;19.30;62.90;;;;;;5490039;26;20227;-63
2024/04/14 00:33:08;;;;;;;2.85;1.98;;;19.30;62.80;;;;;;5490271;26;20223;-63
2024/04/14 00:35:33;;;;;;;2.33;1.92;;;19.30;62.90;;;;;;5487704;26;20257;-64
2024/04/14 00:37:59;;;;;;;2.08;1.88;;;19.20;62.70;;;;;;5488684;26;20985;-63
2024/04/14 00:40:24;;;;;;;1.88;1.77;;;19.30;62.80;;;;;;5488604;26;20886;-64
2024/04/14 00:42:56;;;;;;;2.08;1.75;;;19.20;62.60;;;;;;5487734;26;20215;-64
2024/04/14 00:45:22;;;;;;;2.13;1.92;;;19.30;62.80;;;;;;5489376;26;20318;-63
2024/04/14 00:47:47;;;;;;;2.28;2.03;;;19.30;62.70;;;;;;5489620;26;20614;-64
2024/04/14 00:50:13;;;;;;;2.75;2.10;;;19.30;62.70;;;;;;5455740;26;20226;-64
2024/04/14 00:52:39;;;;;;;2.67;1.88;;;19.30;62.70;;;;;;5443167;26;20231;-64
2024/04/14 00:55:05;;;;;;;2.53;2.00;;;19.30;62.70;;;;;;5452951;26;20319;-63
2024/04/14 00:57:30;;;;;;;3.08;2.03;;;19.30;62.70;;;;;;5451880;26;20223;-63
2024/04/14 00:59:56;;;;;;;2.25;1.88;;;19.20;62.60;;;;;;5393624;26;20269;-63
2024/04/14 01:02:21;;;;;;;1.92;1.73;;;19.20;62.60;;;;;;5486603;26;20281;-63
2024/04/14 01:04:47;;;;;;;2.78;1.95;;;19.30;62.70;;;;;;5488468;26;20252;-63
2024/04/14 01:07:12;;;;;;;3.03;1.73;;;19.20;62.60;;;;;;5489753;26;20214;-64
2024/04/14 01:09:38;;;;;;;2.65;1.88;;;19.20;62.60;;;;;;5488859;26;20210;-63
2024/04/14 01:12:04;;;;;;;2.20;1.90;;;19.20;62.60;;;;;;5484757;26;20872;-64
2024/04/14 01:14:29;;;;;;;2.03;1.90;;;19.30;62.70;;;;;;5457165;26;20234;-64
2024/04/14 01:16:55;;;;;;;3.03;1.92;;;19.20;62.60;;;;;;5488979;26;20226;-64
2024/04/14 01:19:20;;;;;;;1.70;1.60;;;19.20;62.60;;;;;;5488789;26;20218;-64
2024/04/14 01:21:46;;;;;;;2.28;1.80;;;19.20;62.60;;;;;;5489112;26;20732;-64
2024/04/14 01:24:11;;;;;;;2.20;2.00;;;19.20;62.60;;;;;;5488587;26;20265;-63
2024/04/14 01:26:37;;;;;;;2.30;1.95;;;19.20;62.60;;;;;;5487323;26;20214;-62
2024/04/14 01:29:02;;;;;;;2.45;2.05;;;19.20;62.60;;;;;;5489124;26;20215;-63
2024/04/14 01:31:28;;;;;;;1.92;1.70;;;19.20;62.60;;;;;;5488553;26;20257;-63
2024/04/14 01:33:53;;;;;;;3.25;2.20;;;19.20;62.60;;;;;;5488976;26;20269;-64
2024/04/14 01:36:19;;;;;;;3.13;1.85;;;19.20;62.60;;;;;;5489364;26;20269;-65
2024/04/14 01:38:44;;;;;;;1.85;1.55;;;19.20;62.60;;;;;;5486995;26;20257;-63
2024/04/14 01:41:11;;;;;;;2.70;2.35;;;19.10;63.40;;;;;;5488713;26;20747;-64
2024/04/14 01:43:36;;;;;;;3.13;2.03;;;19.20;62.60;;;;;;5489111;26;20218;-63
2024/04/14 01:46:02;;;;;;;4.05;2.00;;;19.20;62.60;;;;;;5487144;26;20335;-64
2024/04/14 01:48:27;;;;;;;3.33;2.15;;;19.20;62.60;;;;;;5488177;26;20327;-64
2024/04/14 01:50:53;;;;;;;2.20;1.80;;;19.10;62.50;;;;;;5487130;26;20222;-64
2024/04/14 01:53:18;;;;;;;2.10;1.83;;;19.10;62.50;;;;;;5488109;26;20223;-64
2024/04/14 01:55:45;;;;;;;2.10;1.90;;;19.20;62.60;;;;;;5488499;26;20222;-63
2024/04/14 01:58:11;;;;;;;2.35;1.92;;;19.10;62.50;;;;;;5488951;26;20692;-63
2024/04/14 02:00:36;;;;;;;2.40;1.88;;;19.10;62.50;;;;;;5488233;26;20214;-63
2024/04/14 02:03:02;;;;;;;3.90;1.73;;;19.10;62.50;;;;;;5488647;26;20315;-62
2024/04/14 02:05:27;;;;;;;2.40;2.20;;;19.10;62.50;;;;;;5488953;26;20318;-64
2024/04/14 02:07:53;;;;;;;1.95;1.73;;;19.10;62.50;;;;;;5487707;26;20314;-64
2024/04/14 02:10:18;;;;;;;2.45;1.60;;;19.10;62.50;;;;;;5488787;26;20231;-64
2024/04/14 02:12:44;;;;;;;2.33;1.98;;;19.20;62.60;;;;;;5488505;26;20214;-64
2024/04/14 02:15:10;;;;;;;2.45;2.25;;;19.20;62.50;;;;;;5486862;26;20313;-64
2024/04/14 02:17:35;;;;;;;3.00;2.15;;;19.10;62.50;;;;;;5488751;26;20234;-64
2024/04/14 02:20:01;;;;;;;3.35;1.92;;;19.10;62.50;;;;;;5487957;26;20689;-64
2024/04/14 02:22:27;;;;;;;2.13;1.90;;;19.10;62.50;;;;;;5487682;26;20253;-64
2024/04/14 02:24:52;;;;;;;3.35;1.90;;;19.10;62.50;;;;;;5488152;26;20214;-63
2024/04/14 02:27:18;;;;;;;1.98;1.80;;;19.10;62.50;;;;;;5488006;26;20218;-63
2024/04/14 02:29:43;;;;;;;3.15;2.08;;;19.20;62.60;;;;;;5486965;26;20561;-63
2024/04/14 02:32:09;;;;;;;2.08;1.88;;;19.20;62.60;;;;;;5488237;26;20681;-64
2024/04/14 02:34:34;;;;;;;2.22;1.90;;;19.10;62.50;;;;;;5488216;26;20218;-64
2024/04/14 02:37:00;;;;;;;2.83;2.00;;;19.10;62.60;;;;;;5487006;26;20215;-64
2024/04/14 02:39:25;;;;;;;2.78;1.50;;;19.10;62.60;;;;;;5488015;26;20215;-63
2024/04/14 02:41:51;;;;;;;2.35;1.67;;;19.10;62.50;;;;;;5487198;26;20230;-64
2024/04/14 02:44:17;;;;;;;2.10;1.77;;;19.10;62.50;;;;;;5488260;26;20215;-63
2024/04/14 02:46:43;;;;;;;2.33;2.08;;;19.10;62.50;;;;;;5487843;26;20316;-64
2024/04/14 02:49:08;;;;;;;2.00;1.80;;;19.10;62.60;;;;;;5486739;26;20531;-64
2024/04/14 02:51:34;;;;;;;2.58;1.85;;;19.10;62.50;;;;;;5487945;26;20253;-63
2024/04/14 02:53:59;;;;;;;2.42;1.90;;;19.10;62.50;;;;;;5487770;26;20738;-63
2024/04/14 02:56:25;;;;;;;2.63;1.75;;;19.10;62.60;;;;;;5486251;26;20253;-63
2024/04/14 02:58:50;;;;;;;2.50;1.95;;;19.10;62.50;;;;;;5487938;26;20740;-63
2024/04/14 03:01:17;;;;;;;2.80;1.80;;;19.10;62.50;;;;;;5489349;26;20206;-63
2024/04/14 03:03:44;;;;;;;2.20;1.50;;;19.10;62.50;;;;;;5490104;26;20215;-63
2024/04/14 03:06:09;;;;;;;3.22;1.88;;;19.10;62.50;;;;;;5491505;26;20222;-64
2024/04/14 03:08:35;;;;;;;1.58;1.48;;;19.10;62.50;;;;;;5491471;26;20299;-64
2024/04/14 03:11:00;;;;;;;1.50;1.40;;;19.10;62.50;;;;;;5488154;26;20257;-64
2024/04/14 03:13:26;;;;;;;2.05;1.60;;;19.10;62.50;;;;;;5491435;26;20310;-64
2024/04/14 03:15:52;;;;;;;2.35;1.70;;;19.10;62.50;;;;;;5490832;26;20230;-64
2024/04/14 03:18:17;;;;;;;3.22;1.70;;;19.10;62.50;;;;;;5490247;26;20313;-65
2024/04/14 03:20:54;;;;;;;1.67;1.58;;;19.00;62.40;;;;;;5490834;26;20224;-64
2024/04/14 03:23:20;;;;;;;3.08;1.80;;;19.00;62.50;;;;;;5491289;26;20540;-63
2024/04/14 03:25:46;;;;;;;1.77;1.30;;;19.00;62.40;;;;;;5490065;26;20295;-64
2024/04/14 03:28:11;;;;;;;1.55;1.45;;;19.00;62.40;;;;;;5470793;26;20278;-63
2024/04/14 03:30:37;;;;;;;2.05;1.83;;;19.00;62.40;;;;;;5453249;26;20261;-64
2024/04/14 03:33:02;;;;;;;3.58;1.58;;;19.00;63.20;;;;;;5453121;26;20748;-64
2024/04/14 03:35:28;;;;;;;2.63;1.70;;;19.00;62.40;;;;;;5454684;26;20270;-64
2024/04/14 03:37:53;;;;;;;2.28;1.60;;;19.00;62.40;;;;;;5454223;26;20262;-64
2024/04/14 03:40:18;;;;;;;2.13;1.70;;;19.00;62.50;;;;;;5453582;26;20335;-64
2024/04/14 03:42:45;;;;;;;2.42;1.65;;;19.00;62.40;;;;;;5454185;26;20231;-64
2024/04/14 03:45:11;;;;;;;2.60;1.58;;;19.00;62.40;;;;;;5453681;26;20215;-64
2024/04/14 03:47:36;;;;;;;1.85;1.70;;;19.00;62.40;;;;;;5454789;26;20219;-64
2024/04/14 03:50:05;;;;;;;1.50;1.30;;;19.00;62.30;;;;;;5454164;26;20223;-64
2024/04/14 03:52:31;;;;;;;2.53;1.55;;;19.00;62.40;;;;;;5453382;26;20211;-64
2024/04/14 03:54:56;;;;;;;2.03;1.50;;;19.00;62.40;;;;;;5453934;26;20254;-64
2024/04/14 03:57:22;;;;;;;1.98;1.50;;;19.00;62.40;;;;;;5452816;26;20220;-63
2024/04/14 03:59:48;;;;;;;2.75;1.55;;;19.00;62.30;;;;;;5452767;26;20291;-63
2024/04/14 04:02:14;;;;;;;2.67;1.63;;;19.00;62.30;;;;;;5454188;26;20686;-64
2024/04/14 04:04:40;;;;;;;1.60;1.38;;;19.00;63.20;;;;;;5453825;26;20263;-63
2024/04/14 04:07:05;;;;;;;2.35;1.50;;;19.00;62.40;;;;;;5453041;26;20219;-64
2024/04/14 04:09:31;;;;;;;3.00;1.42;;;19.00;62.30;;;;;;5451892;26;20257;-63
2024/04/14 04:11:56;;;;;;;1.90;1.40;;;18.90;62.20;;;;;;5453139;26;20615;-64
2024/04/14 04:14:22;;;;;;;2.22;1.63;;;19.00;62.30;;;;;;5452859;26;20625;-64
2024/04/14 04:16:49;;;;;;;2.38;1.58;;;18.90;62.20;;;;;;5434264;26;20262;-64
2024/04/14 04:19:15;;;;;;;2.60;1.55;;;19.00;62.20;;;;;;5418071;26;20228;-64
2024/04/14 04:21:40;;;;;;;2.33;1.42;;;18.90;62.20;;;;;;5416848;26;20259;-64
2024/04/14 04:24:06;;;;;;;1.33;1.23;;;18.90;62.20;;;;;;5418147;26;20267;-63
2024/04/14 04:26:31;;;;;;;1.85;1.63;;;18.90;62.20;;;;;;5418117;26;20599;-63
2024/04/14 04:28:58;;;;;;;1.90;1.60;;;18.90;62.20;;;;;;5416333;26;20263;-63
2024/04/14 04:31:23;;;;;;;2.65;1.52;;;18.90;62.10;;;;;;5417541;26;20228;-63
2024/04/14 04:33:49;;;;;;;1.98;1.30;;;18.90;62.10;;;;;;5417524;26;20217;-65
2024/04/14 04:36:17;;;;;;;1.83;1.30;;;18.90;62.10;;;;;;5417069;26;20224;-64
2024/04/14 04:38:45;;;;;;;1.42;1.17;;;18.90;62.10;;;;;;5417373;26;20263;-65
2024/04/14 04:41:11;;;;;;;3.30;1.75;;;19.00;62.10;;;;;;5417820;26;20545;-64
2024/04/14 04:43:38;;;;;;;2.67;1.70;;;18.90;62.00;;;;;;5416482;26;20733;-64
2024/04/14 04:46:03;;;;;;;2.47;1.35;;;18.90;62.00;;;;;;5416969;26;20228;-65
2024/04/14 04:48:29;;;;;;;1.92;1.55;;;18.90;62.00;;;;;;5416921;26;20254;-64
2024/04/14 04:50:55;;;;;;;2.40;1.38;;;18.90;62.00;;;;;;5417085;26;20723;-64
2024/04/14 04:53:21;;;;;;;1.30;1.10;;;18.90;62.00;;;;;;5417713;26;20259;-64
2024/04/14 04:55:47;;;;;;;2.58;1.60;;;18.90;62.00;;;;;;5416375;26;20221;-64
2024/04/14 04:58:13;;;;;;;2.22;1.50;;;18.90;62.00;;;;;;5417312;26;20325;-63
2024/04/14 05:00:38;;;;;;;2.20;1.40;;;18.90;62.00;;;;;;5417539;26;20225;-64
2024/04/14 05:03:04;;;;;;;1.73;1.20;;;18.90;62.00;;;;;;5416242;26;20289;-64
2024/04/14 05:05:30;;;;;;;2.55;1.33;;;18.90;62.00;;;;;;5417368;26;20259;-63
2024/04/14 05:07:55;;;;;;;3.15;1.48;;;18.90;62.00;;;;;;5416821;26;20216;-64
2024/04/14 05:10:21;;;;;;;2.05;1.40;;;18.90;62.00;;;;;;5416541;26;20234;-64
2024/04/14 05:12:46;;;;;;;1.20;1.08;;;18.90;62.00;;;;;;5416937;26;20565;-64
2024/04/14 05:15:12;;;;;;;1.75;1.58;;;18.90;61.90;;;;;;5417258;26;20759;-64
2024/04/14 05:17:37;;;;;;;2.45;1.50;;;18.90;61.90;;;;;;5416505;26;20329;-64
2024/04/14 05:20:03;;;;;;;2.67;1.63;;;18.90;61.90;;;;;;5416871;26;20322;-64
2024/04/14 05:22:28;;;;;;;2.38;1.42;;;18.80;61.90;;;;;;5416308;26;20336;-63
2024/04/14 05:24:54;;;;;;;2.45;1.30;;;18.90;61.90;;;;;;5415188;26;20224;-63
2024/04/14 05:27:20;;;;;;;2.85;1.40;;;18.90;61.90;;;;;;5416730;26;20232;-63
2024/04/14 05:29:46;;;;;;;2.53;1.48;;;18.80;61.80;;;;;;5416420;26;20735;-62
2024/04/14 05:32:12;;;;;;;1.63;1.42;;;18.80;61.80;;;;;;5416255;26;20259;-64
2024/04/14 05:34:37;;;;;;;2.10;1.42;;;18.80;61.80;;;;;;5415899;26;20232;-64
2024/04/14 05:37:03;;;;;;;2.30;1.30;;;18.80;61.80;;;;;;5416534;26;20298;-64
2024/04/14 05:39:30;;;;;;;1.83;1.27;;;18.90;61.90;;;;;;5416305;26;20221;-64
2024/04/14 05:41:55;;;;;;;2.60;1.67;;;18.80;61.90;;;;;;5416303;26;20273;-64
2024/04/14 05:44:21;;;;;;;2.78;1.60;;;18.80;61.90;;;;;;5416711;26;20225;-64
2024/04/14 05:46:47;;;;;;;2.70;1.27;;;18.80;62.00;;;;;;5415540;26;20224;-64
2024/04/14 05:49:12;;;;;;;1.25;1.00;;;18.80;62.00;;;;;;5416648;26;20220;-64
2024/04/14 05:51:38;;;;;;;2.42;1.17;;;18.80;61.90;;;;;;5415410;26;20232;-65
2024/04/14 05:54:04;;;;;;;2.92;1.17;;;18.80;61.90;;;;;;5414709;26;20221;-64
2024/04/14 05:56:29;;;;;;;1.00;1.00;;;18.80;62.00;;;;;;5415772;26;20588;-64
2024/04/14 05:58:55;;;;;;;2.50;1.20;;;18.80;61.90;;;;;;5415206;26;20233;-63
2024/04/14 06:01:20;;;;;;;1.33;1.08;;;18.80;61.90;;;;;;5416608;26;20268;-63
2024/04/14 06:03:49;;;;;;;2.20;1.50;;;18.80;62.00;;;;;;5416332;26;20225;-63
2024/04/14 06:06:14;;;;;;;1.52;1.25;;;18.80;62.00;;;;;;5415548;26;20265;-63
2024/04/14 06:08:40;;;;;;;2.05;1.30;;;18.80;62.00;;;;;;5415749;26;20317;-64
2024/04/14 06:11:05;;;;;;;2.40;1.75;;;18.80;62.00;;;;;;5416445;26;20585;-64
2024/04/14 06:13:32;;;;;;;2.63;1.13;;;18.80;62.00;;;;;;5415353;26;20654;-64
2024/04/14 06:15:58;;;;;;;1.85;1.50;;;18.80;62.00;;;;;;5416084;26;20241;-64
2024/04/14 06:18:23;;;;;;;2.38;1.48;;;18.80;62.00;;;;;;5416394;26;20332;-64
2024/04/14 06:20:49;;;;;;;1.75;1.00;;;18.80;62.00;;;;;;5414825;26;20264;-64
2024/04/14 06:23:14;;;;;;;1.45;1.33;;;18.80;62.00;;;;;;5415853;26;20224;-62
2024/04/14 06:25:40;;;;;;;2.35;1.17;;;18.80;62.00;;;;;;5416111;26;20217;-62
2024/04/14 06:28:06;;;;;;;1.92;1.17;;;18.80;62.00;;;;;;5415491;26;20233;-63
2024/04/14 06:30:31;;;;;;;1.50;1.35;;;18.80;62.00;;;;;;5415811;26;20252;-63
2024/04/14 06:32:57;;;;;;;1.63;1.08;;;18.80;62.00;;;;;;5415782;26;20216;-64
2024/04/14 06:35:23;;;;;;;1.40;1.00;;;18.80;62.00;;;;;;5415514;26;20220;-63
2024/04/14 06:37:48;;;;;;;1.63;1.10;;;18.80;62.00;;;;;;5415724;26;20221;-64
2024/04/14 06:40:14;;;;;;;1.27;1.13;;;18.80;62.00;;;;;;5416083;26;20562;-65
2024/04/14 06:42:39;;;;;;;4.13;1.33;;;18.80;62.00;;;;;;5414569;26;20213;-64
2024/04/14 06:45:05;;;;;;;1.10;0.85;;;18.80;62.00;;;;;;5415274;26;20221;-64
2024/04/14 06:47:31;;;;;;;2.20;1.20;;;18.80;62.00;;;;;;5415938;26;20683;-63
2024/04/14 06:49:56;;;;;;;2.15;1.27;;;18.80;62.00;;;;;;5414810;26;20263;-64
2024/04/14 06:52:22;;;;;;;1.70;1.10;;;18.80;62.00;;;;;;5415953;26;20224;-64
2024/04/14 06:54:47;;;;;;;1.85;1.30;;;18.80;62.00;;;;;;5414798;26;20257;-63
2024/04/14 06:57:13;;;;;;;1.67;1.15;;;18.80;62.00;;;;;;5414103;26;20285;-63
2024/04/14 06:59:38;;;;;;;1.58;1.17;;;18.80;61.90;;;;;;5415805;26;20255;-62
2024/04/14 07:02:05;;;;;;;2.15;1.30;;;18.80;61.90;;;;;;5414302;26;20217;-64
2024/04/14 07:04:30;;;;;;;3.17;1.10;;;18.80;62.00;;;;;;5415717;26;20228;-64
2024/04/14 07:06:56;;;;;;;2.15;1.10;;;18.80;62.00;;;;;;5415354;26;20263;-63
2024/04/14 07:09:21;;;;;;;2.80;1.60;;;18.80;62.80;;;;;;5414754;26;20325;-64
2024/04/14 07:11:47;;;;;;;3.22;1.60;;;18.80;62.60;;;;;;5415172;26;20321;-64
2024/04/14 07:14:12;;;;;;;1.92;1.17;;;18.80;62.00;;;;;;5415522;26;20685;-64
2024/04/14 07:16:38;;;;;;;1.83;1.17;;;18.80;62.10;;;;;;5414494;26;20765;-64
2024/04/14 07:19:03;;;;;;;3.63;1.60;;;18.80;62.20;;;;;;5414767;26;20216;-64
2024/04/14 07:21:29;;;;;;;1.90;1.38;;;18.80;62.30;;;;;;5415456;26;20624;-64
2024/04/14 07:23:54;;;;;;;3.47;1.25;;;18.70;62.30;;;;;;5414076;26;20262;-63
2024/04/14 07:26:20;;;;;;;3.13;1.48;;;18.80;62.50;;;;;;5415295;26;20225;-64
2024/04/14 07:28:45;;;;;;;3.80;1.67;;;18.80;62.60;;;;;;5414857;26;20220;-63
2024/04/14 07:31:11;;;;;;;3.80;1.60;;;18.80;62.70;;;;;;5414272;26;20692;-64
2024/04/14 07:33:36;;;;;;;4.85;1.25;;;18.80;62.70;;;;;;5415293;26;20259;-64
2024/04/14 07:36:02;;;;;;;3.17;1.45;;;18.80;62.70;;;;;;5414671;26;20288;-65
2024/04/14 07:38:28;;;;;;;2.78;1.35;;;18.80;62.70;;;;;;5414027;26;20229;-64
2024/04/14 07:40:53;;;;;;;2.55;1.40;;;18.80;62.80;;;;;;5414639;26;20217;-65
2024/04/14 07:43:19;;;;;;;2.25;1.50;;;18.80;62.70;;;;;;5414177;26;20710;-64
2024/04/14 07:45:44;;;;;;;1.77;1.00;;;18.80;62.80;;;;;;5416489;26;20850;-65
2024/04/14 07:48:10;;;;;;;2.17;0.90;;;18.80;62.80;;;;;;5418617;26;20220;-65
2024/04/14 07:50:36;;;;;;;2.08;1.20;;;18.80;62.80;;;;;;5418304;26;20217;-65
2024/04/14 07:53:01;;;;;;;2.17;1.15;;;18.80;62.70;;;;;;5417304;26;20225;-64
2024/04/14 07:55:27;;;;;;;4.97;1.52;;;18.80;62.70;;;;;;5418483;26;20333;-64
2024/04/14 07:57:52;;;;;;;2.97;1.30;;;18.80;62.70;;;;;;5417949;26;20240;-64
2024/04/14 08:00:18;;;;;;;4.50;1.55;;;18.80;62.60;;;;;;5417612;26;20232;-63
2024/04/14 08:02:44;;;;;;;2.20;1.08;;;18.80;62.70;;;;;;5417612;26;20224;-64
2024/04/14 08:05:09;;;;;;;2.22;1.27;;;18.80;62.70;;;;;;5418420;26;20221;-64
2024/04/14 08:07:35;;;;;;;2.25;1.02;;;18.80;62.70;;;;;;5417639;26;20259;-64
2024/04/14 08:10:01;;;;;;;2.33;1.60;;;18.80;62.70;;;;;;5417521;26;20228;-64
2024/04/14 08:12:28;;;;;;;1.95;1.40;;;18.80;62.70;;;;;;5417435;26;20220;-64
2024/04/14 08:14:53;;;;;;;1.83;1.10;;;18.80;62.70;;;;;;5417940;26;20221;-65
2024/04/14 08:17:19;;;;;;;1.98;1.30;;;18.80;62.70;;;;;;5418102;26;20232;-65
2024/04/14 08:19:44;;;;;;;2.05;1.25;;;18.80;62.70;;;;;;5416823;26;20328;-64
2024/04/14 08:22:10;;;;;;;2.22;1.35;;;18.80;62.60;;;;;;5418073;26;20658;-64
2024/04/14 08:24:35;;;;;;;2.35;1.20;;;18.80;62.60;;;;;;5418155;26;20690;-63
2024/04/14 08:27:01;;;;;;;1.90;1.08;;;18.80;62.70;;;;;;5416903;26;20221;-64
2024/04/14 08:29:26;;;;;;;2.88;1.30;;;18.80;62.60;;;;;;5417983;26;20321;-64
2024/04/14 08:31:55;;;;;;;1.50;1.20;;;18.80;62.60;;;;;;5417768;26;20316;-64
2024/04/14 08:34:20;;;;;;;2.50;1.20;;;18.80;62.60;;;;;;5417224;26;20547;-64
2024/04/14 08:36:46;;;;;;;1.92;1.10;;;18.80;62.60;;;;;;5417543;26;20350;-64
2024/04/14 08:39:13;;;;;;;1.20;0.80;;;18.80;62.50;;;;;;5417809;26;20695;-65
2024/04/14 08:41:41;;;;;;;2.78;1.15;;;18.80;62.50;;;;;;5417114;26;20225;-64
2024/04/14 08:44:08;;;;;;;2.40;1.20;;;18.80;62.50;;;;;;5417814;26;20272;-64
2024/04/14 08:46:34;;;;;;;1.52;0.88;;;18.80;62.50;;;;;;5417732;26;20224;-65
2024/04/14 08:48:59;;;;;;;2.47;1.02;;;18.80;62.50;;;;;;5383926;26;20250;-64
2024/04/14 08:51:25;;;;;;;1.83;1.20;;;18.80;62.40;;;;;;5385960;26;20220;-65
2024/04/14 08:53:51;;;;;;;2.70;0.93;;;18.80;62.40;;;;;;5356696;26;20267;-64
2024/04/14 08:56:17;;;;;;;1.52;1.05;;;18.80;62.40;;;;;;5355273;26;20249;-64
2024/04/14 08:58:43;;;;;;;3.40;1.30;;;18.80;62.40;;;;;;5417244;26;20278;-64
2024/04/14 09:01:10;;;;;;;2.55;1.17;;;18.80;62.40;;;;;;5417479;26;20568;-63
2024/04/14 09:03:35;;;;;;;1.70;1.20;;;18.90;62.40;;;;;;5416763;26;20263;-64
2024/04/14 09:06:08;;;;;;;1.33;1.00;;;18.90;62.20;;;;;;5417150;26;20220;-66
2024/04/14 09:08:33;;;;;;;1.02;0.70;;;18.80;62.10;;;;;;5417185;26;20259;-64
2024/04/14 09:10:59;;;;;;;1.45;0.90;;;18.90;62.10;;;;;;5416477;26;20897;-64
2024/04/14 09:13:28;;;;;;;2.22;1.00;;;18.90;62.10;;;;;;5356763;26;20260;-64
2024/04/14 09:15:56;;;;;;;3.50;1.23;;;18.80;61.90;;;;;;5416161;26;20270;-65
2024/04/14 09:18:22;;;;;;;1.90;0.82;;;18.90;61.80;;;;;;5417374;26;20263;-65
2024/04/14 09:20:48;;;;;;;2.38;0.98;;;18.80;61.70;;;;;;5416906;26;20225;-64
2024/04/14 09:23:14;;;;;;;3.08;1.10;;;18.90;61.80;;;;;;5415938;26;20220;-64
2024/04/14 09:25:39;;;;;;;2.88;1.08;;;18.90;61.80;;;;;;5417125;26;21097;-62
2024/04/14 09:28:10;;;;;;;3.28;1.33;;;18.90;61.80;;;;;;5416996;26;20271;-64
2024/04/14 09:30:36;;;;;;;3.20;1.30;;;18.90;61.80;;;;;;5416440;26;20309;-64
2024/04/14 09:33:02;;;;;;;1.52;0.98;;;18.90;61.60;;;;;;5416776;26;20232;-63
2024/04/14 09:35:27;;;;;;;3.45;1.05;;;18.90;61.60;;;;;;5386057;26;20220;-65
2024/04/14 09:37:53;;;;;;;2.38;1.13;;;19.00;61.60;;;;;;5355115;26;20228;-64
2024/04/14 09:40:18;;;;;;;2.63;1.10;;;19.00;61.60;;;;;;5416911;26;20229;-65
2024/04/14 09:42:45;;;;;;;1.40;1.13;;;19.00;61.60;;;;;;5416333;26;20225;-64
2024/04/14 09:45:10;;;;;;;2.22;0.93;;;19.00;61.50;;;;;;5416173;26;20325;-64
2024/04/14 09:47:36;;;;;;;3.78;1.40;;;19.10;61.60;;;;;;5416976;26;20235;-65
2024/04/14 09:50:03;;;;;;;1.98;0.85;;;19.00;61.40;;;;;;5416140;26;20221;-64
2024/04/14 09:52:29;;;;;;;1.83;0.95;;;19.00;61.40;;;;;;5385142;26;20263;-65
2024/04/14 09:54:55;;;;;;;1.48;1.05;;;19.10;61.30;;;;;;5385186;26;20589;-64
2024/04/14 09:57:21;;;;;;;2.58;1.00;;;19.10;61.30;;;;;;5354792;26;20702;-64
2024/04/14 09:59:46;;;;;;;2.20;0.90;;;19.10;61.30;;;;;;5415560;26;20329;-64
2024/04/14 10:02:16;;;;;;;2.22;1.15;;;19.20;61.30;;;;;;5416110;26;20240;-64
2024/04/14 10:04:42;;;;;;;3.47;0.95;;;19.10;61.30;;;;;;5385093;26;20225;-64
2024/04/14 10:07:08;;;;;;;1.85;0.90;;;19.20;61.20;;;;;;5354461;26;20225;-64
2024/04/14 10:09:34;;;;;;;2.38;1.17;;;19.20;60.80;;;;;;5416622;26;20225;-65
2024/04/14 10:12:00;;;;;;;2.25;1.10;;;19.20;60.90;;;;;;5415176;26;20695;-65
2024/04/14 10:14:27;;;;;;;1.50;0.90;;;19.20;60.90;;;;;;5415616;26;20220;-69
2024/04/14 10:16:56;;;;;;;4.65;0.90;;;19.30;61.00;;;;;;5415510;26;20279;-71
2024/04/14 10:19:21;;;;;;;7.65;1.58;;;19.50;60.80;;;;;;5415723;26;20561;-69
2024/04/14 10:21:47;;;;;;;3.17;1.40;;;19.60;61.00;;;;;;5415897;26;20316;-70
2024/04/14 10:24:12;;;;;;;2.67;1.33;;;19.70;60.80;;;;;;5416467;26;20216;-67
2024/04/14 10:26:38;;;;;;;4.18;1.05;;;19.80;61.30;;;;;;5415457;26;20336;-68
2024/04/14 10:29:06;;;;;;;5.28;1.30;;;19.80;61.20;;;;;;5415747;26;20324;-67
2024/04/14 10:31:34;;;;;;;7.05;1.23;;;19.80;61.30;;;;;;5416269;26;20224;-75
2024/04/14 10:34:06;;;;;;;8.50;1.42;;;19.90;61.40;;;;;;5415077;26;20216;-77
2024/04/14 10:36:35;;;;;;;3.85;1.10;;;19.90;61.40;;;;;;5416183;26;20730;-72
2024/04/14 10:39:02;;;;;;;5.30;1.30;;;20.00;61.30;;;;;;5415694;26;20224;-68
2024/04/14 10:41:31;;;;;;;5.50;1.30;;;20.10;61.40;;;;;;5415135;26;20225;-67
2024/04/14 10:43:57;;;;;;;3.33;1.42;;;20.10;61.30;;;;;;5415208;26;20346;-67
2024/04/14 10:46:25;;;;;;;4.85;1.50;;;20.00;61.50;;;;;;5384848;26;20228;-68
2024/04/14 10:48:50;;;;;;;4.78;1.25;;;20.00;61.80;;;;;;5383240;26;20217;-67
2024/04/14 10:51:16;;;;;;;3.90;1.35;;;20.00;61.70;;;;;;5415949;26;20255;-67
2024/04/14 10:53:41;;;;;;;5.35;1.38;;;20.10;61.80;;;;;;5413848;26;20267;-69
2024/04/14 10:56:07;;;;;;;3.25;1.33;;;20.20;61.70;;;;;;5415085;26;20557;-69
2024/04/14 10:58:33;;;;;;;3.92;1.38;;;20.20;61.60;;;;;;5412661;26;20771;-67
2024/04/14 11:00:59;;;;;;;7.25;1.52;;;20.30;61.70;;;;;;5414283;26;20840;-64
2024/04/14 11:03:28;;;;;;;4.97;1.52;;;20.30;61.30;;;;;;5408198;26;20275;-67
2024/04/14 11:05:54;;;;;;;5.85;1.60;;;20.30;61.10;;;;;;5410201;26;20278;-66
2024/04/14 11:08:20;;;;;;;4.85;1.70;;;20.30;60.80;;;;;;5351951;26;20625;-67
2024/04/14 11:10:46;;;;;;;6.60;1.17;;;20.30;61.20;;;;;;5379799;26;20216;-66
2024/04/14 11:13:15;;;;;;;6.35;1.50;;;20.40;61.00;;;;;;5381188;26;20260;-67
2024/04/14 11:15:41;;;;;;;5.75;1.58;;;20.40;61.00;;;;;;5383730;26;20645;-68
2024/04/14 11:18:07;;;;;;;4.93;1.30;;;20.40;61.00;;;;;;5415543;26;20313;-66
2024/04/14 11:20:33;;;;;;;3.75;1.30;;;20.40;61.00;;;;;;5417638;26;20545;-69
2024/04/14 11:23:07;;;;;;;7.97;1.65;;;20.40;61.20;;;;;;5406986;26;20805;-64
2024/04/14 11:25:33;;;;;;;3.25;1.40;;;20.40;61.10;;;;;;5415849;26;20220;-64
2024/04/14 11:27:59;;;;;;;3.85;1.65;;;20.50;60.80;;;;;;5384545;26;20741;-65
2024/04/14 11:30:31;;;;;;;5.45;1.60;;;20.50;60.70;;;;;;5416113;26;20228;-66
2024/04/14 11:32:57;;;;;;;3.30;1.20;;;20.50;60.60;;;;;;5414612;26;20228;-66
2024/04/14 11:35:23;;;;;;;3.83;1.33;;;20.60;60.50;;;;;;5385554;26;20691;-69
2024/04/14 11:37:54;;;;;;;8.05;1.30;;;20.70;60.50;;;;;;5415677;26;20221;-67
2024/04/14 11:40:22;;;;;;;3.35;1.25;;;20.60;59.70;;;;;;5417626;26;20220;-66
2024/04/14 11:42:48;;;;;;;8.68;1.77;;;20.60;57.90;;;;;;5417368;26;20229;-68
2024/04/14 11:45:14;;;;;;;4.85;1.40;;;20.50;56.30;;;;;;5417884;26;20224;-66
2024/04/14 11:47:40;;;;;;;6.88;1.27;;;20.50;55.00;;;;;;5418367;26;20630;-67
2024/04/14 11:50:07;;;;;;;7.97;1.15;;;20.40;53.60;;;;;;5417967;26;20225;-67
2024/04/14 11:52:32;;;;;;;5.03;1.00;;;20.40;53.90;;;;;;5417458;26;20224;-67
2024/04/14 11:54:58;;;;;;;5.43;1.35;;;20.40;54.10;;;;;;5417743;26;20592;-67
2024/04/14 11:57:26;;;;;;;7.38;1.33;;;20.40;54.20;;;;;;5417284;26;20679;-66
2024/04/14 11:59:52;;;;;;;2.95;0.90;;;20.40;54.20;;;;;;5417723;26;20220;-67
2024/04/14 12:02:18;;;;;;;4.50;1.35;;;20.40;54.40;;;;;;5418472;26;20221;-67
2024/04/14 12:04:43;;;;;;;4.82;1.23;;;20.50;54.60;;;;;;5417207;26;20291;-66
2024/04/14 12:07:09;;;;;;;2.30;1.08;;;20.50;54.70;;;;;;5417956;26;20228;-67
2024/04/14 12:09:34;;;;;;;1.85;0.80;;;20.50;54.90;;;;;;5415053;26;20216;-67
2024/04/14 12:12:00;;;;;;;6.72;1.33;;;20.50;55.00;;;;;;5417059;26;20224;-67
2024/04/14 12:14:25;;;;;;;2.42;1.10;;;20.50;55.20;;;;;;5386908;26;20276;-67
2024/04/14 12:16:51;;;;;;;2.72;0.70;;;20.60;55.40;;;;;;5417384;26;20232;-67
2024/04/14 12:19:16;;;;;;;5.45;1.25;;;20.60;55.50;;;;;;5416998;26;20746;-67
2024/04/14 12:21:45;;;;;;;3.22;0.88;;;20.70;55.60;;;;;;5417678;26;20228;-67
2024/04/14 12:24:11;;;;;;;2.20;1.10;;;20.70;55.70;;;;;;5416659;26;20266;-66
2024/04/14 12:26:37;;;;;;;1.63;0.82;;;20.70;55.70;;;;;;5417162;26;20565;-67
2024/04/14 12:29:02;;;;;;;3.35;0.90;;;20.60;55.90;;;;;;5417768;26;20272;-67
2024/04/14 12:31:27;;;;;;;3.95;0.93;;;20.50;56.10;;;;;;5417829;26;20228;-67
2024/04/14 12:33:53;;;;;;;3.13;1.10;;;20.50;56.10;;;;;;5416825;26;20229;-67
2024/04/14 12:36:19;;;;;;;3.35;1.08;;;20.50;56.40;;;;;;5417955;26;20595;-67
2024/04/14 12:38:46;;;;;;;1.58;0.70;;;20.70;56.40;;;;;;5417479;26;20255;-67
2024/04/14 12:41:11;;;;;;;3.03;1.02;;;20.80;56.30;;;;;;5417022;26;20325;-66